sensor_id;sensor_type;location;lat;lon;timestamp;P1;durP1;ratioP1;P2;durP2;ratioP2
63110;SDS011;49201;53.426;10.300;2022-12-15T00:02:21;49.23;;;23.93;;
63110;SDS011;49201;53.426;10.300;2022-12-15T00:05:05;50.97;;;23.13;;
63110;SDS011;49201;53.426;10.300;2022-12-15T00:07:49;44.57;;;23.03;;
63110;SDS011;49201;53.426;10.300;2022-12-15T00:10:33;41.07;;;22.47;;
63110;SDS011;49201;53.426;10.300;2022-12-15T00:13:17;42.97;;;22.13;;
63110;SDS011;49201;53.426;10.300;2022-12-15T00:16:01;43.83;;;22.17;;
63110;SDS011;49201;53.426;10.300;2022-12-15T00:18:46;43.77;;;22.20;;
63110;SDS011;49201;53.426;10.300;2022-12-15T00:21:30;48.77;;;23.07;;
63110;SDS011;49201;53.426;10.300;2022-12-15T00:24:14;47.93;;;23.20;;
63110;SDS011;49201;53.426;10.300;2022-12-15T00:26:59;47.03;;;22.47;;
63110;SDS011;49201;53.426;10.300;2022-12-15T00:29:44;47.57;;;22.33;;
63110;SDS011;49201;53.426;10.300;2022-12-15T00:32:28;41.07;;;22.70;;
63110;SDS011;49201;53.426;10.300;2022-12-15T00:35:12;47.20;;;21.90;;
63110;SDS011;49201;53.426;10.300;2022-12-15T00:37:56;43.50;;;21.47;;
63110;SDS011;49201;53.426;10.300;2022-12-15T00:40:40;42.93;;;20.80;;
63110;SDS011;49201;53.426;10.300;2022-12-15T00:43:05;47.50;;;23.07;;
63110;SDS011;49201;53.426;10.300;2022-12-15T00:45:36;44.60;;;21.07;;
63110;SDS011;49201;53.426;10.300;2022-12-15T00:48:20;43.53;;;21.87;;
63110;SDS011;49201;53.426;10.300;2022-12-15T00:50:46;45.17;;;22.07;;
63110;SDS011;49201;53.426;10.300;2022-12-15T00:53:18;44.50;;;21.07;;
63110;SDS011;49201;53.426;10.300;2022-12-15T00:56:02;47.27;;;21.20;;
63110;SDS011;49201;53.426;10.300;2022-12-15T00:58:46;39.67;;;20.17;;
63110;SDS011;49201;53.426;10.300;2022-12-15T01:01:30;41.33;;;20.60;;
63110;SDS011;49201;53.426;10.300;2022-12-15T01:04:14;47.80;;;20.83;;
63110;SDS011;49201;53.426;10.300;2022-12-15T01:06:58;40.07;;;20.60;;
63110;SDS011;49201;53.426;10.300;2022-12-15T01:09:42;46.47;;;21.30;;
63110;SDS011;49201;53.426;10.300;2022-12-15T01:12:26;44.90;;;23.23;;
63110;SDS011;49201;53.426;10.300;2022-12-15T01:15:10;40.53;;;21.77;;
63110;SDS011;49201;53.426;10.300;2022-12-15T01:17:54;42.50;;;20.67;;
63110;SDS011;49201;53.426;10.300;2022-12-15T01:20:38;39.93;;;21.03;;
63110;SDS011;49201;53.426;10.300;2022-12-15T01:23:03;48.10;;;22.20;;
63110;SDS011;49201;53.426;10.300;2022-12-15T01:25:29;43.20;;;23.43;;
63110;SDS011;49201;53.426;10.300;2022-12-15T01:27:54;43.90;;;22.80;;
63110;SDS011;49201;53.426;10.300;2022-12-15T01:30:21;44.70;;;23.53;;
63110;SDS011;49201;53.426;10.300;2022-12-15T01:32:49;43.47;;;22.37;;
63110;SDS011;49201;53.426;10.300;2022-12-15T01:35:15;43.57;;;22.53;;
63110;SDS011;49201;53.426;10.300;2022-12-15T01:37:41;40.50;;;22.37;;
63110;SDS011;49201;53.426;10.300;2022-12-15T01:40:10;39.17;;;22.00;;
63110;SDS011;49201;53.426;10.300;2022-12-15T01:42:56;40.70;;;22.47;;
63110;SDS011;49201;53.426;10.300;2022-12-15T01:47:47;43.90;;;22.83;;
63110;SDS011;49201;53.426;10.300;2022-12-15T01:50:14;43.40;;;23.10;;
63110;SDS011;49201;53.426;10.300;2022-12-15T01:52:40;41.57;;;22.40;;
63110;SDS011;49201;53.426;10.300;2022-12-15T01:55:06;45.33;;;23.23;;
63110;SDS011;49201;53.426;10.300;2022-12-15T01:57:33;39.50;;;21.67;;
63110;SDS011;49201;53.426;10.300;2022-12-15T02:00:00;44.50;;;22.87;;
63110;SDS011;49201;53.426;10.300;2022-12-15T02:02:31;44.60;;;23.83;;
63110;SDS011;49201;53.426;10.300;2022-12-15T02:04:59;42.40;;;22.40;;
63110;SDS011;49201;53.426;10.300;2022-12-15T02:07:26;41.17;;;22.33;;
63110;SDS011;49201;53.426;10.300;2022-12-15T02:09:52;45.07;;;21.90;;
63110;SDS011;49201;53.426;10.300;2022-12-15T02:23:27;42.83;;;20.63;;
63110;SDS011;49201;53.426;10.300;2022-12-15T02:31:14;37.87;;;20.47;;
63110;SDS011;49201;53.426;10.300;2022-12-15T02:37:16;38.27;;;20.70;;
63110;SDS011;49201;53.426;10.300;2022-12-15T02:39:43;43.33;;;21.77;;
63110;SDS011;49201;53.426;10.300;2022-12-15T02:42:09;40.77;;;21.00;;
63110;SDS011;49201;53.426;10.300;2022-12-15T02:55:17;41.97;;;20.03;;
63110;SDS011;49201;53.426;10.300;2022-12-15T02:57:53;42.97;;;21.40;;
63110;SDS011;49201;53.426;10.300;2022-12-15T03:00:40;190.87;;;43.80;;
63110;SDS011;49201;53.426;10.300;2022-12-15T03:03:09;54.17;;;24.57;;
63110;SDS011;49201;53.426;10.300;2022-12-15T03:05:37;40.13;;;22.03;;
63110;SDS011;49201;53.426;10.300;2022-12-15T03:08:03;51.13;;;24.13;;
63110;SDS011;49201;53.426;10.300;2022-12-15T03:10:28;41.93;;;22.00;;
63110;SDS011;49201;53.426;10.300;2022-12-15T03:12:54;40.20;;;20.83;;
63110;SDS011;49201;53.426;10.300;2022-12-15T03:15:20;44.47;;;21.47;;
63110;SDS011;49201;53.426;10.300;2022-12-15T03:17:45;41.10;;;19.97;;
63110;SDS011;49201;53.426;10.300;2022-12-15T03:20:11;41.93;;;20.13;;
63110;SDS011;49201;53.426;10.300;2022-12-15T03:22:37;39.63;;;21.77;;
63110;SDS011;49201;53.426;10.300;2022-12-15T03:25:03;44.00;;;21.67;;
63110;SDS011;49201;53.426;10.300;2022-12-15T03:27:29;38.60;;;21.57;;
63110;SDS011;49201;53.426;10.300;2022-12-15T03:29:55;42.87;;;21.47;;
63110;SDS011;49201;53.426;10.300;2022-12-15T03:32:21;38.53;;;19.57;;
63110;SDS011;49201;53.426;10.300;2022-12-15T03:34:46;38.10;;;19.87;;
63110;SDS011;49201;53.426;10.300;2022-12-15T03:37:11;39.77;;;20.97;;
63110;SDS011;49201;53.426;10.300;2022-12-15T03:39:37;36.97;;;20.03;;
63110;SDS011;49201;53.426;10.300;2022-12-15T03:42:03;37.33;;;19.80;;
63110;SDS011;49201;53.426;10.300;2022-12-15T03:44:28;40.13;;;20.83;;
63110;SDS011;49201;53.426;10.300;2022-12-15T03:46:54;38.70;;;18.53;;
63110;SDS011;49201;53.426;10.300;2022-12-15T03:49:20;35.63;;;19.13;;
63110;SDS011;49201;53.426;10.300;2022-12-15T03:51:45;36.97;;;20.63;;
63110;SDS011;49201;53.426;10.300;2022-12-15T03:54:11;37.20;;;19.43;;
63110;SDS011;49201;53.426;10.300;2022-12-15T03:56:38;36.43;;;18.57;;
63110;SDS011;49201;53.426;10.300;2022-12-15T03:59:03;36.50;;;19.07;;
63110;SDS011;49201;53.426;10.300;2022-12-15T04:01:30;36.90;;;19.47;;
63110;SDS011;49201;53.426;10.300;2022-12-15T04:03:57;37.50;;;18.40;;
63110;SDS011;49201;53.426;10.300;2022-12-15T04:06:23;40.20;;;19.30;;
63110;SDS011;49201;53.426;10.300;2022-12-15T04:08:49;36.97;;;18.67;;
63110;SDS011;49201;53.426;10.300;2022-12-15T04:11:14;33.53;;;18.50;;
63110;SDS011;49201;53.426;10.300;2022-12-15T04:13:40;34.23;;;18.87;;
63110;SDS011;49201;53.426;10.300;2022-12-15T04:16:06;35.17;;;18.13;;
63110;SDS011;49201;53.426;10.300;2022-12-15T04:18:31;34.30;;;18.37;;
63110;SDS011;49201;53.426;10.300;2022-12-15T04:20:57;35.87;;;17.97;;
63110;SDS011;49201;53.426;10.300;2022-12-15T04:23:22;29.23;;;16.90;;
63110;SDS011;49201;53.426;10.300;2022-12-15T04:25:48;39.23;;;18.23;;
63110;SDS011;49201;53.426;10.300;2022-12-15T04:28:32;34.43;;;19.03;;
63110;SDS011;49201;53.426;10.300;2022-12-15T04:31:21;34.07;;;18.43;;
63110;SDS011;49201;53.426;10.300;2022-12-15T04:34:12;36.20;;;18.27;;
63110;SDS011;49201;53.426;10.300;2022-12-15T04:36:59;32.73;;;17.47;;
63110;SDS011;49201;53.426;10.300;2022-12-15T04:39:44;31.73;;;17.83;;
63110;SDS011;49201;53.426;10.300;2022-12-15T04:42:31;33.37;;;18.87;;
63110;SDS011;49201;53.426;10.300;2022-12-15T04:45:18;33.90;;;18.00;;
63110;SDS011;49201;53.426;10.300;2022-12-15T04:48:04;35.30;;;18.27;;
63110;SDS011;49201;53.426;10.300;2022-12-15T04:50:49;36.00;;;18.57;;
63110;SDS011;49201;53.426;10.300;2022-12-15T04:53:32;34.43;;;17.53;;
63110;SDS011;49201;53.426;10.300;2022-12-15T04:56:16;35.17;;;17.17;;
63110;SDS011;49201;53.426;10.300;2022-12-15T04:59:01;33.17;;;17.10;;
63110;SDS011;49201;53.426;10.300;2022-12-15T05:01:46;33.83;;;15.93;;
63110;SDS011;49201;53.426;10.300;2022-12-15T05:04:30;38.00;;;17.67;;
63110;SDS011;49201;53.426;10.300;2022-12-15T05:07:14;28.53;;;16.73;;
63110;SDS011;49201;53.426;10.300;2022-12-15T05:09:59;30.60;;;16.60;;
63110;SDS011;49201;53.426;10.300;2022-12-15T05:12:43;32.90;;;16.70;;
63110;SDS011;49201;53.426;10.300;2022-12-15T05:15:27;35.83;;;17.23;;
63110;SDS011;49201;53.426;10.300;2022-12-15T05:18:12;36.10;;;17.87;;
63110;SDS011;49201;53.426;10.300;2022-12-15T05:20:57;32.10;;;16.67;;
63110;SDS011;49201;53.426;10.300;2022-12-15T05:23:41;34.37;;;17.27;;
63110;SDS011;49201;53.426;10.300;2022-12-15T05:26:25;33.90;;;16.73;;
63110;SDS011;49201;53.426;10.300;2022-12-15T05:29:09;35.03;;;18.63;;
63110;SDS011;49201;53.426;10.300;2022-12-15T05:31:53;41.13;;;19.50;;
63110;SDS011;49201;53.426;10.300;2022-12-15T05:34:29;32.40;;;17.60;;
63110;SDS011;49201;53.426;10.300;2022-12-15T05:36:57;39.23;;;19.20;;
63110;SDS011;49201;53.426;10.300;2022-12-15T05:39:24;38.47;;;19.53;;
63110;SDS011;49201;53.426;10.300;2022-12-15T05:41:51;34.07;;;17.57;;
63110;SDS011;49201;53.426;10.300;2022-12-15T05:44:17;35.37;;;18.27;;
63110;SDS011;49201;53.426;10.300;2022-12-15T05:46:43;40.97;;;20.10;;
63110;SDS011;49201;53.426;10.300;2022-12-15T05:49:10;43.80;;;22.00;;
63110;SDS011;49201;53.426;10.300;2022-12-15T05:51:38;41.50;;;22.57;;
63110;SDS011;49201;53.426;10.300;2022-12-15T05:54:05;43.43;;;21.90;;
63110;SDS011;49201;53.426;10.300;2022-12-15T05:56:34;32.63;;;18.47;;
63110;SDS011;49201;53.426;10.300;2022-12-15T05:59:00;32.43;;;17.40;;
63110;SDS011;49201;53.426;10.300;2022-12-15T06:01:26;33.87;;;17.67;;
63110;SDS011;49201;53.426;10.300;2022-12-15T06:03:54;30.43;;;16.50;;
63110;SDS011;49201;53.426;10.300;2022-12-15T06:06:20;32.50;;;17.50;;
63110;SDS011;49201;53.426;10.300;2022-12-15T06:08:45;32.47;;;18.00;;
63110;SDS011;49201;53.426;10.300;2022-12-15T06:11:12;30.33;;;16.03;;
63110;SDS011;49201;53.426;10.300;2022-12-15T06:13:39;29.27;;;15.93;;
63110;SDS011;49201;53.426;10.300;2022-12-15T06:16:12;32.83;;;16.43;;
63110;SDS011;49201;53.426;10.300;2022-12-15T06:18:41;31.93;;;17.17;;
63110;SDS011;49201;53.426;10.300;2022-12-15T06:21:09;25.77;;;15.93;;
63110;SDS011;49201;53.426;10.300;2022-12-15T06:23:37;36.03;;;16.80;;
63110;SDS011;49201;53.426;10.300;2022-12-15T06:26:23;31.83;;;16.40;;
63110;SDS011;49201;53.426;10.300;2022-12-15T06:28:51;38.77;;;18.47;;
63110;SDS011;49201;53.426;10.300;2022-12-15T06:31:18;34.13;;;17.60;;
63110;SDS011;49201;53.426;10.300;2022-12-15T06:33:47;29.37;;;17.77;;
63110;SDS011;49201;53.426;10.300;2022-12-15T06:36:14;29.70;;;18.33;;
63110;SDS011;49201;53.426;10.300;2022-12-15T06:38:41;34.03;;;18.60;;
63110;SDS011;49201;53.426;10.300;2022-12-15T06:41:08;36.63;;;17.63;;
63110;SDS011;49201;53.426;10.300;2022-12-15T06:43:38;30.93;;;17.53;;
63110;SDS011;49201;53.426;10.300;2022-12-15T06:46:04;36.23;;;18.70;;
63110;SDS011;49201;53.426;10.300;2022-12-15T06:48:30;37.00;;;19.77;;
63110;SDS011;49201;53.426;10.300;2022-12-15T06:50:55;39.20;;;18.43;;
63110;SDS011;49201;53.426;10.300;2022-12-15T06:53:26;31.37;;;16.90;;
63110;SDS011;49201;53.426;10.300;2022-12-15T06:55:51;38.20;;;19.80;;
63110;SDS011;49201;53.426;10.300;2022-12-15T06:58:17;34.17;;;17.50;;
63110;SDS011;49201;53.426;10.300;2022-12-15T07:00:43;32.93;;;16.93;;
63110;SDS011;49201;53.426;10.300;2022-12-15T07:03:14;29.03;;;16.17;;
63110;SDS011;49201;53.426;10.300;2022-12-15T07:05:42;30.10;;;16.00;;
63110;SDS011;49201;53.426;10.300;2022-12-15T07:08:12;30.90;;;16.27;;
63110;SDS011;49201;53.426;10.300;2022-12-15T07:10:40;30.73;;;16.13;;
63110;SDS011;49201;53.426;10.300;2022-12-15T07:13:12;29.97;;;15.83;;
63110;SDS011;49201;53.426;10.300;2022-12-15T07:15:38;30.17;;;16.57;;
63110;SDS011;49201;53.426;10.300;2022-12-15T07:18:04;33.00;;;16.50;;
63110;SDS011;49201;53.426;10.300;2022-12-15T07:20:30;31.23;;;15.87;;
63110;SDS011;49201;53.426;10.300;2022-12-15T07:22:57;31.53;;;16.60;;
63110;SDS011;49201;53.426;10.300;2022-12-15T07:25:22;30.07;;;16.60;;
63110;SDS011;49201;53.426;10.300;2022-12-15T07:27:48;27.13;;;16.07;;
63110;SDS011;49201;53.426;10.300;2022-12-15T07:30:14;30.93;;;16.87;;
63110;SDS011;49201;53.426;10.300;2022-12-15T07:32:41;29.80;;;15.43;;
63110;SDS011;49201;53.426;10.300;2022-12-15T07:35:08;30.40;;;16.60;;
63110;SDS011;49201;53.426;10.300;2022-12-15T07:37:34;30.73;;;18.10;;
63110;SDS011;49201;53.426;10.300;2022-12-15T07:40:01;29.47;;;16.40;;
63110;SDS011;49201;53.426;10.300;2022-12-15T07:42:28;32.13;;;18.17;;
63110;SDS011;49201;53.426;10.300;2022-12-15T07:44:53;27.67;;;16.80;;
63110;SDS011;49201;53.426;10.300;2022-12-15T07:47:19;34.03;;;17.80;;
63110;SDS011;49201;53.426;10.300;2022-12-15T07:49:44;32.87;;;17.70;;
63110;SDS011;49201;53.426;10.300;2022-12-15T07:52:10;37.97;;;17.70;;
63110;SDS011;49201;53.426;10.300;2022-12-15T07:54:38;31.50;;;17.17;;
63110;SDS011;49201;53.426;10.300;2022-12-15T07:57:03;31.57;;;18.17;;
63110;SDS011;49201;53.426;10.300;2022-12-15T07:59:32;29.77;;;16.73;;
63110;SDS011;49201;53.426;10.300;2022-12-15T08:01:58;30.67;;;17.73;;
63110;SDS011;49201;53.426;10.300;2022-12-15T08:04:25;34.43;;;18.50;;
63110;SDS011;49201;53.426;10.300;2022-12-15T08:06:52;37.90;;;19.63;;
63110;SDS011;49201;53.426;10.300;2022-12-15T08:09:18;40.33;;;19.70;;
63110;SDS011;49201;53.426;10.300;2022-12-15T08:11:43;35.43;;;19.20;;
63110;SDS011;49201;53.426;10.300;2022-12-15T08:14:09;39.23;;;19.53;;
63110;SDS011;49201;53.426;10.300;2022-12-15T08:16:34;48.63;;;22.03;;
63110;SDS011;49201;53.426;10.300;2022-12-15T08:19:00;45.27;;;22.03;;
63110;SDS011;49201;53.426;10.300;2022-12-15T08:21:27;41.07;;;21.23;;
63110;SDS011;49201;53.426;10.300;2022-12-15T08:23:55;36.13;;;18.63;;
63110;SDS011;49201;53.426;10.300;2022-12-15T08:26:20;44.07;;;20.20;;
63110;SDS011;49201;53.426;10.300;2022-12-15T08:28:46;41.03;;;21.17;;
63110;SDS011;49201;53.426;10.300;2022-12-15T08:31:15;48.93;;;20.63;;
63110;SDS011;49201;53.426;10.300;2022-12-15T08:33:43;51.70;;;22.00;;
63110;SDS011;49201;53.426;10.300;2022-12-15T08:36:10;48.23;;;20.70;;
63110;SDS011;49201;53.426;10.300;2022-12-15T08:38:38;47.40;;;20.97;;
63110;SDS011;49201;53.426;10.300;2022-12-15T08:43:34;40.37;;;19.17;;
63110;SDS011;49201;53.426;10.300;2022-12-15T08:46:00;34.60;;;18.17;;
63110;SDS011;49201;53.426;10.300;2022-12-15T08:48:26;32.33;;;17.27;;
63110;SDS011;49201;53.426;10.300;2022-12-15T08:50:53;32.60;;;17.93;;
63110;SDS011;49201;53.426;10.300;2022-12-15T08:53:19;30.23;;;16.63;;
63110;SDS011;49201;53.426;10.300;2022-12-15T08:55:45;31.53;;;17.00;;
63110;SDS011;49201;53.426;10.300;2022-12-15T08:58:10;29.33;;;16.60;;
63110;SDS011;49201;53.426;10.300;2022-12-15T09:00:36;30.57;;;17.13;;
63110;SDS011;49201;53.426;10.300;2022-12-15T09:03:01;27.30;;;16.20;;
63110;SDS011;49201;53.426;10.300;2022-12-15T09:05:26;30.97;;;17.37;;
63110;SDS011;49201;53.426;10.300;2022-12-15T09:07:53;32.60;;;18.03;;
63110;SDS011;49201;53.426;10.300;2022-12-15T09:10:20;31.97;;;18.30;;
63110;SDS011;49201;53.426;10.300;2022-12-15T09:12:45;34.33;;;18.90;;
63110;SDS011;49201;53.426;10.300;2022-12-15T09:15:11;31.60;;;17.83;;
63110;SDS011;49201;53.426;10.300;2022-12-15T09:17:36;30.83;;;17.70;;
63110;SDS011;49201;53.426;10.300;2022-12-15T09:20:02;27.80;;;16.40;;
63110;SDS011;49201;53.426;10.300;2022-12-15T09:22:28;29.70;;;17.50;;
63110;SDS011;49201;53.426;10.300;2022-12-15T09:24:55;28.73;;;17.67;;
63110;SDS011;49201;53.426;10.300;2022-12-15T09:27:20;33.13;;;18.33;;
63110;SDS011;49201;53.426;10.300;2022-12-15T09:29:45;32.40;;;18.17;;
63110;SDS011;49201;53.426;10.300;2022-12-15T09:32:11;33.33;;;18.07;;
63110;SDS011;49201;53.426;10.300;2022-12-15T09:34:38;30.03;;;17.53;;
63110;SDS011;49201;53.426;10.300;2022-12-15T09:37:04;34.27;;;19.77;;
63110;SDS011;49201;53.426;10.300;2022-12-15T09:39:29;34.63;;;17.23;;
63110;SDS011;49201;53.426;10.300;2022-12-15T09:41:57;32.87;;;17.97;;
63110;SDS011;49201;53.426;10.300;2022-12-15T09:44:25;27.93;;;17.63;;
63110;SDS011;49201;53.426;10.300;2022-12-15T09:47:04;28.53;;;16.80;;
63110;SDS011;49201;53.426;10.300;2022-12-15T09:49:51;29.57;;;16.90;;
63110;SDS011;49201;53.426;10.300;2022-12-15T09:54:50;28.23;;;17.20;;
63110;SDS011;49201;53.426;10.300;2022-12-15T10:08:16;27.67;;;16.93;;
63110;SDS011;49201;53.426;10.300;2022-12-15T10:11:03;26.70;;;16.10;;
63110;SDS011;49201;53.426;10.300;2022-12-15T10:16:35;28.80;;;16.73;;
63110;SDS011;49201;53.426;10.300;2022-12-15T10:19:13;28.20;;;17.17;;
63110;SDS011;49201;53.426;10.300;2022-12-15T10:21:46;29.33;;;17.03;;
63110;SDS011;49201;53.426;10.300;2022-12-15T10:24:22;23.83;;;15.70;;
63110;SDS011;49201;53.426;10.300;2022-12-15T10:26:51;26.37;;;15.30;;
63110;SDS011;49201;53.426;10.300;2022-12-15T10:34:44;22.30;;;13.70;;
63110;SDS011;49201;53.426;10.300;2022-12-15T10:37:12;22.57;;;13.63;;
63110;SDS011;49201;53.426;10.300;2022-12-15T10:39:41;23.43;;;15.03;;
63110;SDS011;49201;53.426;10.300;2022-12-15T10:42:13;23.67;;;14.60;;
63110;SDS011;49201;53.426;10.300;2022-12-15T10:44:53;27.73;;;16.57;;
63110;SDS011;49201;53.426;10.300;2022-12-15T10:47:23;24.13;;;15.17;;
63110;SDS011;49201;53.426;10.300;2022-12-15T10:49:52;25.43;;;14.80;;
63110;SDS011;49201;53.426;10.300;2022-12-15T10:52:27;23.17;;;14.90;;
63110;SDS011;49201;53.426;10.300;2022-12-15T10:54:58;24.63;;;14.13;;
63110;SDS011;49201;53.426;10.300;2022-12-15T10:57:25;19.83;;;13.80;;
63110;SDS011;49201;53.426;10.300;2022-12-15T11:02:43;21.07;;;13.73;;
63110;SDS011;49201;53.426;10.300;2022-12-15T11:08:22;21.57;;;14.63;;
63110;SDS011;49201;53.426;10.300;2022-12-15T11:10:49;21.03;;;14.07;;
63110;SDS011;49201;53.426;10.300;2022-12-15T11:13:36;20.03;;;13.63;;
63110;SDS011;49201;53.426;10.300;2022-12-15T11:16:13;24.80;;;14.57;;
63110;SDS011;49201;53.426;10.300;2022-12-15T11:18:48;25.37;;;15.47;;
63110;SDS011;49201;53.426;10.300;2022-12-15T11:26:43;23.07;;;15.43;;
63110;SDS011;49201;53.426;10.300;2022-12-15T11:32:21;21.90;;;15.13;;
63110;SDS011;49201;53.426;10.300;2022-12-15T11:34:49;24.57;;;15.63;;
63110;SDS011;49201;53.426;10.300;2022-12-15T11:54:15;24.40;;;15.23;;
63110;SDS011;49201;53.426;10.300;2022-12-15T11:57:01;25.60;;;15.23;;
63110;SDS011;49201;53.426;10.300;2022-12-15T12:05:20;25.00;;;15.83;;
63110;SDS011;49201;53.426;10.300;2022-12-15T12:11:04;21.90;;;15.10;;
63110;SDS011;49201;53.426;10.300;2022-12-15T12:16:40;26.20;;;15.87;;
63110;SDS011;49201;53.426;10.300;2022-12-15T12:19:26;22.87;;;15.33;;
63110;SDS011;49201;53.426;10.300;2022-12-15T12:22:10;22.93;;;15.43;;
63110;SDS011;49201;53.426;10.300;2022-12-15T12:27:37;23.63;;;14.87;;
63110;SDS011;49201;53.426;10.300;2022-12-15T12:30:13;22.13;;;14.27;;
63110;SDS011;49201;53.426;10.300;2022-12-15T12:35:20;23.23;;;15.33;;
63110;SDS011;49201;53.426;10.300;2022-12-15T12:37:57;20.47;;;14.33;;
63110;SDS011;49201;53.426;10.300;2022-12-15T12:46:18;21.60;;;14.23;;
63110;SDS011;49201;53.426;10.300;2022-12-15T12:51:15;17.93;;;14.20;;
63110;SDS011;49201;53.426;10.300;2022-12-15T12:53:45;23.00;;;14.73;;
63110;SDS011;49201;53.426;10.300;2022-12-15T12:56:30;25.87;;;15.23;;
63110;SDS011;49201;53.426;10.300;2022-12-15T12:58:59;25.13;;;14.73;;
63110;SDS011;49201;53.426;10.300;2022-12-15T13:01:32;19.77;;;14.03;;
63110;SDS011;49201;53.426;10.300;2022-12-15T13:04:09;21.67;;;14.43;;
63110;SDS011;49201;53.426;10.300;2022-12-15T13:12:04;28.23;;;14.93;;
63110;SDS011;49201;53.426;10.300;2022-12-15T13:14:40;24.67;;;13.80;;
63110;SDS011;49201;53.426;10.300;2022-12-15T13:20:27;21.40;;;13.67;;
63110;SDS011;49201;53.426;10.300;2022-12-15T13:24:55;18.87;;;12.67;;
63110;SDS011;49201;53.426;10.300;2022-12-15T13:27:21;18.87;;;10.97;;
63110;SDS011;49201;53.426;10.300;2022-12-15T13:29:55;17.60;;;11.97;;
63110;SDS011;49201;53.426;10.300;2022-12-15T13:32:38;18.40;;;11.87;;
63110;SDS011;49201;53.426;10.300;2022-12-15T13:42:55;17.87;;;11.80;;
63110;SDS011;49201;53.426;10.300;2022-12-15T13:45:27;16.80;;;10.90;;
63110;SDS011;49201;53.426;10.300;2022-12-15T13:48:00;19.00;;;11.10;;
63110;SDS011;49201;53.426;10.300;2022-12-15T13:50:30;19.53;;;11.17;;
63110;SDS011;49201;53.426;10.300;2022-12-15T13:53:02;19.63;;;11.23;;
63110;SDS011;49201;53.426;10.300;2022-12-15T13:55:35;15.20;;;11.63;;
63110;SDS011;49201;53.426;10.300;2022-12-15T13:58:04;14.40;;;10.77;;
63110;SDS011;49201;53.426;10.300;2022-12-15T14:00:37;16.40;;;11.17;;
63110;SDS011;49201;53.426;10.300;2022-12-15T14:03:10;13.93;;;9.47;;
63110;SDS011;49201;53.426;10.300;2022-12-15T14:05:36;17.97;;;10.67;;
63110;SDS011;49201;53.426;10.300;2022-12-15T14:08:06;17.07;;;10.73;;
63110;SDS011;49201;53.426;10.300;2022-12-15T14:13:10;20.77;;;11.97;;
63110;SDS011;49201;53.426;10.300;2022-12-15T14:15:43;15.10;;;10.87;;
63110;SDS011;49201;53.426;10.300;2022-12-15T14:18:21;21.57;;;10.50;;
63110;SDS011;49201;53.426;10.300;2022-12-15T14:20:48;15.83;;;10.33;;
63110;SDS011;49201;53.426;10.300;2022-12-15T14:23:21;14.47;;;9.10;;
63110;SDS011;49201;53.426;10.300;2022-12-15T14:26:08;13.30;;;8.13;;
63110;SDS011;49201;53.426;10.300;2022-12-15T14:28:36;13.93;;;8.50;;
63110;SDS011;49201;53.426;10.300;2022-12-15T14:33:46;12.63;;;9.10;;
63110;SDS011;49201;53.426;10.300;2022-12-15T14:36:26;15.17;;;8.73;;
63110;SDS011;49201;53.426;10.300;2022-12-15T14:38:59;11.77;;;8.27;;
63110;SDS011;49201;53.426;10.300;2022-12-15T14:41:29;15.73;;;8.57;;
63110;SDS011;49201;53.426;10.300;2022-12-15T14:44:04;12.33;;;8.17;;
63110;SDS011;49201;53.426;10.300;2022-12-15T14:46:32;13.50;;;7.77;;
63110;SDS011;49201;53.426;10.300;2022-12-15T14:49:02;15.67;;;7.40;;
63110;SDS011;49201;53.426;10.300;2022-12-15T14:51:31;12.40;;;7.93;;
63110;SDS011;49201;53.426;10.300;2022-12-15T14:54:05;15.57;;;8.57;;
63110;SDS011;49201;53.426;10.300;2022-12-15T14:59:46;13.77;;;9.27;;
63110;SDS011;49201;53.426;10.300;2022-12-15T15:02:25;14.43;;;9.10;;
63110;SDS011;49201;53.426;10.300;2022-12-15T15:05:00;15.07;;;8.40;;
63110;SDS011;49201;53.426;10.300;2022-12-15T15:07:28;15.97;;;9.07;;
63110;SDS011;49201;53.426;10.300;2022-12-15T15:09:55;14.30;;;8.37;;
63110;SDS011;49201;53.426;10.300;2022-12-15T15:12:22;17.13;;;8.47;;
63110;SDS011;49201;53.426;10.300;2022-12-15T15:14:57;13.17;;;8.10;;
63110;SDS011;49201;53.426;10.300;2022-12-15T15:17:32;14.50;;;9.03;;
63110;SDS011;49201;53.426;10.300;2022-12-15T15:20:02;15.13;;;9.30;;
63110;SDS011;49201;53.426;10.300;2022-12-15T15:28:00;15.50;;;8.80;;
63110;SDS011;49201;53.426;10.300;2022-12-15T15:30:51;16.33;;;9.33;;
63110;SDS011;49201;53.426;10.300;2022-12-15T15:33:21;13.70;;;8.70;;
63110;SDS011;49201;53.426;10.300;2022-12-15T15:35:51;17.17;;;8.90;;
63110;SDS011;49201;53.426;10.300;2022-12-15T15:41:13;21.30;;;9.87;;
63110;SDS011;49201;53.426;10.300;2022-12-15T15:43:40;15.67;;;9.20;;
63110;SDS011;49201;53.426;10.300;2022-12-15T15:46:23;12.57;;;8.20;;
63110;SDS011;49201;53.426;10.300;2022-12-15T15:48:57;15.67;;;8.17;;
63110;SDS011;49201;53.426;10.300;2022-12-15T15:51:25;14.47;;;9.53;;
63110;SDS011;49201;53.426;10.300;2022-12-15T15:53:52;17.70;;;9.17;;
63110;SDS011;49201;53.426;10.300;2022-12-15T15:56:22;16.83;;;9.50;;
63110;SDS011;49201;53.426;10.300;2022-12-15T15:58:47;15.87;;;9.53;;
63110;SDS011;49201;53.426;10.300;2022-12-15T16:01:13;15.47;;;9.13;;
63110;SDS011;49201;53.426;10.300;2022-12-15T16:03:38;15.00;;;9.43;;
63110;SDS011;49201;53.426;10.300;2022-12-15T16:06:04;16.63;;;10.37;;
63110;SDS011;49201;53.426;10.300;2022-12-15T16:08:32;16.10;;;9.97;;
63110;SDS011;49201;53.426;10.300;2022-12-15T16:10:59;12.80;;;8.83;;
63110;SDS011;49201;53.426;10.300;2022-12-15T16:13:25;18.40;;;10.50;;
63110;SDS011;49201;53.426;10.300;2022-12-15T16:15:52;16.93;;;12.30;;
63110;SDS011;49201;53.426;10.300;2022-12-15T16:18:18;19.87;;;10.57;;
63110;SDS011;49201;53.426;10.300;2022-12-15T16:20:45;16.20;;;10.07;;
63110;SDS011;49201;53.426;10.300;2022-12-15T16:23:22;17.03;;;11.33;;
63110;SDS011;49201;53.426;10.300;2022-12-15T16:25:54;19.13;;;11.90;;
63110;SDS011;49201;53.426;10.300;2022-12-15T16:28:22;15.87;;;10.20;;
63110;SDS011;49201;53.426;10.300;2022-12-15T16:30:52;19.30;;;10.97;;
63110;SDS011;49201;53.426;10.300;2022-12-15T16:33:18;17.07;;;10.43;;
63110;SDS011;49201;53.426;10.300;2022-12-15T16:35:43;17.83;;;10.57;;
63110;SDS011;49201;53.426;10.300;2022-12-15T16:40:54;21.57;;;12.43;;
63110;SDS011;49201;53.426;10.300;2022-12-15T16:43:22;17.67;;;11.97;;
63110;SDS011;49201;53.426;10.300;2022-12-15T16:45:53;21.83;;;11.67;;
63110;SDS011;49201;53.426;10.300;2022-12-15T16:48:19;20.70;;;12.40;;
63110;SDS011;49201;53.426;10.300;2022-12-15T16:50:49;21.33;;;13.27;;
63110;SDS011;49201;53.426;10.300;2022-12-15T16:53:20;20.23;;;12.53;;
63110;SDS011;49201;53.426;10.300;2022-12-15T16:55:51;20.77;;;13.00;;
63110;SDS011;49201;53.426;10.300;2022-12-15T16:58:21;20.90;;;12.73;;
63110;SDS011;49201;53.426;10.300;2022-12-15T17:00:49;21.67;;;12.47;;
63110;SDS011;49201;53.426;10.300;2022-12-15T17:03:15;21.37;;;12.37;;
63110;SDS011;49201;53.426;10.300;2022-12-15T17:05:44;20.23;;;12.33;;
63110;SDS011;49201;53.426;10.300;2022-12-15T17:08:17;22.40;;;13.80;;